createdAt,value
2022-10-12T00:00:58.613Z,101139.56
2022-10-12T00:03:25.375Z,101145.50
2022-10-12T00:06:12.115Z,101139.31
2022-10-12T00:08:39.755Z,101141.00
2022-10-12T00:11:07.034Z,101140.09
2022-10-12T00:13:33.907Z,101137.84
2022-10-12T00:16:07.772Z,101140.59
2022-10-12T00:18:34.944Z,101143.97
2022-10-12T00:21:02.670Z,101147.44
2022-10-12T00:23:30.111Z,101146.56
2022-10-12T00:25:56.882Z,101145.81
2022-10-12T00:28:23.660Z,101148.47
2022-10-12T00:30:50.261Z,101149.44
2022-10-12T00:33:16.820Z,101146.75
2022-10-12T00:35:43.363Z,101154.72
2022-10-12T00:38:09.949Z,101149.56
2022-10-12T00:40:36.474Z,101158.22
2022-10-12T00:43:03.151Z,101153.69
2022-10-12T00:45:30.195Z,101153.00
2022-10-12T00:47:57.499Z,101150.31
2022-10-12T00:50:32.546Z,101158.13
2022-10-12T00:53:04.398Z,101156.25
2022-10-12T00:55:33.130Z,101155.47
2022-10-12T00:58:00.187Z,101150.97
2022-10-12T01:00:26.845Z,101151.13
2022-10-12T01:02:55.106Z,101150.44
2022-10-12T01:05:22.616Z,101155.78
2022-10-12T01:07:49.407Z,101152.09
2022-10-12T01:10:16.542Z,101152.00
2022-10-12T01:12:43.942Z,101151.16
2022-10-12T01:15:11.432Z,101154.72
2022-10-12T01:17:41.055Z,101158.41
2022-10-12T01:20:22.783Z,101167.25
2022-10-12T01:23:09.091Z,101170.16
2022-10-12T01:25:54.420Z,101168.19
2022-10-12T01:28:31.844Z,101168.16
2022-10-12T01:31:03.120Z,101166.44
2022-10-12T01:33:29.713Z,101170.84
2022-10-12T01:36:01.106Z,101169.94
2022-10-12T01:38:33.559Z,101170.81
2022-10-12T01:41:03.705Z,101168.16
2022-10-12T01:43:37.530Z,101169.84
2022-10-12T01:46:13.332Z,101167.34
2022-10-12T01:48:41.092Z,101168.19
2022-10-12T01:51:10.615Z,101168.06
2022-10-12T01:53:50.635Z,101174.12
2022-10-12T01:56:29.081Z,101172.50
2022-10-12T01:59:15.674Z,101163.28
2022-10-12T02:01:44.585Z,101166.88
2022-10-12T02:04:17.256Z,101165.87
2022-10-12T02:06:51.165Z,101167.69
2022-10-12T02:09:24.554Z,101169.53
2022-10-12T02:11:53.276Z,101171.12
2022-10-12T02:14:21.775Z,101170.16
2022-10-12T02:16:57.049Z,101165.72
2022-10-12T02:19:26.478Z,101170.06
2022-10-12T02:21:55.034Z,101173.59
2022-10-12T02:24:22.938Z,101166.81
2022-10-12T02:26:52.824Z,101171.12
2022-10-12T02:29:22.513Z,101166.69
2022-10-12T02:31:55.377Z,101168.41
2022-10-12T02:34:31.390Z,101163.91
2022-10-12T02:36:57.939Z,101161.38
2022-10-12T02:39:28.612Z,101163.28
2022-10-12T02:41:57.639Z,101157.84
2022-10-12T02:44:26.441Z,101156.09
2022-10-12T02:46:54.702Z,101160.44
2022-10-12T02:49:22.651Z,101148.03
2022-10-12T02:51:49.528Z,101157.12
2022-10-12T02:54:16.114Z,101151.00
2022-10-12T02:56:47.149Z,101154.34
2022-10-12T02:59:14.721Z,101152.53
2022-10-12T03:01:41.387Z,101143.66
2022-10-12T03:04:08.182Z,101140.97
2022-10-12T03:06:35.190Z,101143.69
2022-10-12T03:09:01.876Z,101140.22
2022-10-12T03:11:28.439Z,101139.28
2022-10-12T03:13:55.523Z,101143.66
2022-10-12T03:16:22.232Z,101141.87
2022-10-12T03:18:48.794Z,101141.94
2022-10-12T03:21:15.508Z,101136.66
2022-10-12T03:23:42.160Z,101136.75
2022-10-12T03:26:09.110Z,101140.06
2022-10-12T03:28:35.894Z,101133.81
2022-10-12T03:31:03.236Z,101137.38
2022-10-12T03:33:30.043Z,101134.87
2022-10-12T03:35:56.874Z,101139.38
2022-10-12T03:38:23.466Z,101144.72
2022-10-12T03:40:50.716Z,101152.06
2022-10-12T03:43:17.555Z,101139.56
2022-10-12T03:45:44.309Z,101149.22
2022-10-12T03:48:10.959Z,101139.41
2022-10-12T03:50:37.597Z,101142.94
2022-10-12T03:53:05.243Z,101150.94
2022-10-12T03:55:32.022Z,101148.16
2022-10-12T03:57:58.636Z,101149.72
2022-10-12T04:00:26.174Z,101143.62
2022-10-12T04:02:52.923Z,101148.97
2022-10-12T04:05:19.543Z,101158.66
2022-10-12T04:07:46.231Z,101151.50
2022-10-12T04:10:12.983Z,101147.94
2022-10-12T04:12:39.713Z,101155.87
2022-10-12T04:15:06.557Z,101157.88
2022-10-12T04:17:33.101Z,101158.78
2022-10-12T04:19:59.721Z,101153.50
2022-10-12T04:22:26.296Z,101159.66
2022-10-12T04:24:52.921Z,101160.56
2022-10-12T04:27:19.707Z,101156.16
2022-10-12T04:29:46.345Z,101155.25
2022-10-12T04:32:13.136Z,101157.47
2022-10-12T04:34:39.866Z,101157.44
2022-10-12T04:37:06.521Z,101152.00
2022-10-12T04:39:33.115Z,101148.41
2022-10-12T04:42:00.041Z,101154.56
2022-10-12T04:44:31.955Z,101165.19
2022-10-12T04:46:59.186Z,101167.00
2022-10-12T04:49:25.822Z,101158.00
2022-10-12T04:51:52.456Z,101164.25
2022-10-12T04:54:19.136Z,101160.78
2022-10-12T04:56:48.061Z,101160.78
2022-10-12T04:59:15.087Z,101160.81
2022-10-12T05:01:41.880Z,101164.34
2022-10-12T05:04:08.594Z,101171.53
2022-10-12T05:06:35.200Z,101171.53
2022-10-12T05:09:01.863Z,101171.50
2022-10-12T05:11:28.518Z,101173.41
2022-10-12T05:13:55.053Z,101173.41
2022-10-12T05:16:22.151Z,101174.28
2022-10-12T05:18:48.794Z,101174.16
2022-10-12T05:21:15.617Z,101177.03
2022-10-12T05:23:42.458Z,101176.16
2022-10-12T05:26:09.060Z,101183.09
2022-10-12T05:28:40.587Z,101183.09
2022-10-12T05:31:07.643Z,101183.09
2022-10-12T05:33:34.691Z,101183.94
2022-10-12T05:36:01.331Z,101190.97
2022-10-12T05:38:27.976Z,101188.31
2022-10-12T05:41:00.039Z,101195.44
2022-10-12T05:43:27.591Z,101198.03
2022-10-12T05:45:54.350Z,101193.41
2022-10-12T05:48:22.175Z,101190.78
2022-10-12T05:50:48.933Z,101196.59
2022-10-12T05:53:15.900Z,101199.06
2022-10-12T05:55:52.964Z,101198.19
2022-10-12T05:58:27.220Z,101194.38
2022-10-12T06:01:02.989Z,101203.09
2022-10-12T06:03:35.013Z,101214.00
2022-10-12T06:06:07.430Z,101215.78
2022-10-12T06:08:35.993Z,101212.28
2022-10-12T06:11:03.140Z,101224.59
2022-10-12T06:13:30.096Z,101222.56
2022-10-12T06:15:57.379Z,101214.47
2022-10-12T06:18:24.411Z,101223.06
2022-10-12T06:21:08.734Z,101222.16
2022-10-12T06:23:39.559Z,101226.06
2022-10-12T06:26:06.484Z,101219.09
2022-10-12T06:28:33.096Z,101221.31
2022-10-12T06:31:00.339Z,101208.88
2022-10-12T06:33:27.583Z,101211.69
2022-10-12T06:35:58.244Z,101204.56
2022-10-12T06:38:24.899Z,101215.75
2022-10-12T06:40:57.422Z,101212.41
2022-10-12T06:43:24.493Z,101215.31
2022-10-12T06:45:51.188Z,101209.78
2022-10-12T06:48:18.937Z,101220.34
2022-10-12T06:50:49.271Z,101222.25
2022-10-12T06:53:16.698Z,101219.19
2022-10-12T06:55:43.378Z,101218.22
2022-10-12T06:58:09.936Z,101225.97
2022-10-12T07:00:36.930Z,101226.41
2022-10-12T07:03:04.022Z,101227.19
2022-10-12T07:05:30.607Z,101218.12
2022-10-12T07:07:57.496Z,101223.97
2022-10-12T07:10:25.317Z,101223.91
2022-10-12T07:12:52.156Z,101221.44
2022-10-12T07:15:18.823Z,101219.91
2022-10-12T07:17:45.440Z,101219.13
2022-10-12T07:20:12.153Z,101221.44
2022-10-12T07:22:39.101Z,101220.66
2022-10-12T07:25:06.090Z,101220.00
2022-10-12T07:27:32.918Z,101213.19
2022-10-12T07:29:59.573Z,101217.41
2022-10-12T07:32:26.227Z,101214.00
2022-10-12T07:34:52.862Z,101212.19
2022-10-12T07:37:19.490Z,101208.69
2022-10-12T07:39:46.333Z,101207.69
2022-10-12T07:42:18.233Z,101195.72
2022-10-12T07:44:45.853Z,101199.78
2022-10-12T07:47:12.485Z,101204.59
2022-10-12T07:49:39.186Z,101205.09
2022-10-12T07:52:05.965Z,101200.88
2022-10-12T07:54:33.012Z,101202.25
2022-10-12T07:57:00.675Z,101196.25
2022-10-12T07:59:27.432Z,101201.22
2022-10-12T08:01:54.122Z,101197.72
2022-10-12T08:04:20.969Z,101203.41
2022-10-12T08:06:47.552Z,101202.41
2022-10-12T08:09:14.233Z,101197.97
2022-10-12T08:11:41.442Z,101202.84
2022-10-12T08:14:12.475Z,101202.06
2022-10-12T08:16:39.082Z,101193.59
2022-10-12T08:19:05.900Z,101197.94
2022-10-12T08:21:32.471Z,101196.09
2022-10-12T08:23:59.225Z,101195.16
2022-10-12T08:26:26.054Z,101194.59
2022-10-12T08:28:52.919Z,101185.94
2022-10-12T08:31:19.693Z,101194.22
2022-10-12T08:33:46.613Z,101196.34
2022-10-12T08:36:13.531Z,101196.56
2022-10-12T08:38:40.386Z,101196.91
2022-10-12T08:41:06.923Z,101197.91
2022-10-12T08:43:52.493Z,101196.22
2022-10-12T08:46:21.134Z,101201.53
2022-10-12T08:48:56.111Z,101200.59
2022-10-12T08:51:24.917Z,101190.47
2022-10-12T08:53:54.664Z,101194.13
2022-10-12T08:56:22.207Z,101183.31
2022-10-12T08:58:49.866Z,101190.09
2022-10-12T09:01:19.405Z,101190.25
2022-10-12T09:04:18.522Z,101190.31
2022-10-12T09:06:55.925Z,101187.09
2022-10-12T09:09:22.732Z,101182.44
2022-10-12T09:12:05.471Z,101182.69
2022-10-12T09:14:33.732Z,101181.91
2022-10-12T09:17:02.259Z,101178.94
2022-10-12T09:19:35.171Z,101181.22
2022-10-12T09:22:03.061Z,101182.78
2022-10-12T09:24:33.920Z,101181.63
2022-10-12T09:27:03.773Z,101185.69
2022-10-12T09:29:33.773Z,101187.69
2022-10-12T09:32:16.137Z,101180.53
2022-10-12T09:34:43.275Z,101176.19
2022-10-12T09:37:13.833Z,101187.66
2022-10-12T09:39:41.052Z,101179.00
2022-10-12T09:42:09.303Z,101178.28
2022-10-12T09:44:40.195Z,101176.06
2022-10-12T09:47:29.634Z,101179.41
2022-10-12T09:50:01.267Z,101179.34
2022-10-12T09:52:37.051Z,101177.72
2022-10-12T09:55:06.888Z,101176.34
2022-10-12T09:57:34.054Z,101172.78
2022-10-12T10:00:03.045Z,101175.53
2022-10-12T10:02:30.255Z,101175.38
2022-10-12T10:05:13.905Z,101186.72
2022-10-12T10:07:41.743Z,101171.81
2022-10-12T10:10:26.742Z,101177.78
2022-10-12T10:12:59.228Z,101179.69
2022-10-12T10:15:28.297Z,101171.16
2022-10-12T10:17:56.291Z,101164.56
2022-10-12T10:20:34.449Z,101163.97
2022-10-12T10:23:02.960Z,101169.25
2022-10-12T10:25:29.902Z,101158.97
2022-10-12T10:28:16.882Z,101160.25
2022-10-12T10:30:55.035Z,101168.09
2022-10-12T10:33:22.041Z,101168.84
2022-10-12T10:35:54.830Z,101165.09
2022-10-12T10:38:21.709Z,101164.94
2022-10-12T10:40:52.356Z,101170.50
2022-10-12T10:43:21.690Z,101169.72
2022-10-12T10:45:50.610Z,101170.16
2022-10-12T10:48:37.614Z,101167.25
2022-10-12T10:51:07.347Z,101168.28
2022-10-12T10:53:43.918Z,101166.56
2022-10-12T10:56:31.186Z,101159.34
2022-10-12T10:59:00.218Z,101154.16
2022-10-12T11:01:28.526Z,101159.00
2022-10-12T11:04:02.879Z,101160.06
2022-10-12T11:07:02.413Z,101152.13
2022-10-12T11:09:56.321Z,101156.41
2022-10-12T11:12:34.780Z,101149.06
2022-10-12T11:15:08.361Z,101145.63
2022-10-12T11:17:41.114Z,101157.50
2022-10-12T11:20:26.596Z,101154.53
2022-10-12T11:22:55.661Z,101154.94
2022-10-12T11:25:25.890Z,101142.50
2022-10-12T11:27:53.989Z,101145.91
2022-10-12T11:30:22.696Z,101143.00
2022-10-12T11:32:55.080Z,101145.31
2022-10-12T11:35:26.016Z,101141.25
2022-10-12T11:37:58.089Z,101140.47
2022-10-12T11:41:05.688Z,101139.50
2022-10-12T11:43:36.388Z,101139.88
2022-10-12T11:46:06.211Z,101137.47
2022-10-12T11:48:45.971Z,101137.50
2022-10-12T11:51:12.629Z,101123.78
2022-10-12T11:53:42.301Z,101126.75
2022-10-12T11:56:17.059Z,101118.25
2022-10-12T11:59:01.776Z,101119.47
2022-10-12T12:02:01.557Z,101116.88
2022-10-12T12:04:41.734Z,101121.00
2022-10-12T12:07:29.411Z,101118.66
2022-10-12T12:09:56.246Z,101115.59
2022-10-12T12:12:24.644Z,101118.28
2022-10-12T12:14:51.351Z,101109.53
2022-10-12T12:17:20.711Z,101117.06
2022-10-12T12:19:56.255Z,101114.06
2022-10-12T12:22:24.895Z,101112.00
2022-10-12T12:25:00.336Z,101109.16
2022-10-12T12:27:35.280Z,101108.34
2022-10-12T12:30:04.750Z,101114.44
2022-10-12T12:32:41.957Z,101109.19
2022-10-12T12:35:18.292Z,101103.03
2022-10-12T12:37:45.517Z,101097.81
2022-10-12T12:40:21.525Z,101098.97
2022-10-12T12:42:48.330Z,101098.97
2022-10-12T12:45:33.599Z,101108.16
2022-10-12T12:48:00.324Z,101106.38
2022-10-12T12:50:30.552Z,101104.81
2022-10-12T12:53:02.708Z,101114.59
2022-10-12T12:55:55.589Z,101113.47
2022-10-12T12:58:42.579Z,101107.63
2022-10-12T13:01:27.759Z,101103.97
2022-10-12T13:04:17.899Z,101107.78
2022-10-12T13:07:12.154Z,101113.88
2022-10-12T13:09:41.727Z,101112.06
2022-10-12T13:12:16.159Z,101109.16
2022-10-12T13:14:44.343Z,101107.81
2022-10-12T13:19:57.976Z,101107.44
2022-10-12T13:22:35.479Z,101104.78
2022-10-12T13:25:05.657Z,101108.25
2022-10-12T13:27:45.774Z,101102.50
2022-10-12T13:30:12.465Z,101090.53
2022-10-12T13:32:49.717Z,101088.22
2022-10-12T13:35:37.199Z,101094.22
2022-10-12T13:38:05.857Z,101089.72
2022-10-12T13:40:40.583Z,101090.00
2022-10-12T13:43:26.465Z,101082.69
2022-10-12T13:45:53.313Z,101086.62
2022-10-12T13:48:39.809Z,101082.84
2022-10-12T13:51:20.912Z,101082.50
2022-10-12T13:53:48.291Z,101085.94
2022-10-12T13:56:33.056Z,101080.00
2022-10-12T13:59:04.266Z,101075.97
2022-10-12T14:01:35.649Z,101079.03
2022-10-12T14:04:03.834Z,101078.50
2022-10-12T14:06:30.612Z,101077.25
2022-10-12T14:08:58.527Z,101073.47
2022-10-12T14:11:26.828Z,101079.00
2022-10-12T14:13:54.199Z,101071.25
2022-10-12T14:16:21.129Z,101075.59
2022-10-12T14:18:47.913Z,101079.53
2022-10-12T14:21:17.323Z,101074.94
2022-10-12T14:23:48.575Z,101057.19
2022-10-12T14:26:22.585Z,101070.78
2022-10-12T14:28:49.378Z,101060.75
2022-10-12T14:31:17.261Z,101068.00
2022-10-12T14:33:43.960Z,101073.59
2022-10-12T14:36:13.782Z,101068.06
2022-10-12T14:38:40.545Z,101074.37
2022-10-12T14:41:26.151Z,101065.66
2022-10-12T14:44:11.686Z,101066.19
2022-10-12T14:46:39.641Z,101067.31
2022-10-12T14:49:06.392Z,101070.97
2022-10-12T14:51:33.525Z,101068.63
2022-10-12T14:54:01.110Z,101077.03
2022-10-12T14:56:27.954Z,101069.62
2022-10-12T14:58:54.760Z,101069.94
2022-10-12T15:01:22.401Z,101077.19
2022-10-12T15:03:49.086Z,101065.72
2022-10-12T15:06:16.938Z,101079.25
2022-10-12T15:08:43.777Z,101079.28
2022-10-12T15:11:11.601Z,101084.22
2022-10-12T15:13:38.656Z,101081.81
2022-10-12T15:16:06.653Z,101084.13
2022-10-12T15:18:33.615Z,101086.00
2022-10-12T15:21:00.210Z,101084.31
2022-10-12T15:23:26.887Z,101081.50
2022-10-12T15:25:54.841Z,101082.13
2022-10-12T15:28:21.957Z,101078.75
2022-10-12T15:31:15.291Z,101081.56
2022-10-12T15:33:35.687Z,101083.91
2022-10-12T15:36:02.515Z,101079.38
2022-10-12T15:38:29.500Z,101085.09
2022-10-12T15:40:58.389Z,101077.28
2022-10-12T15:43:25.933Z,101086.03
2022-10-12T15:45:53.588Z,101076.66
2022-10-12T15:48:20.190Z,101083.34
2022-10-12T15:50:48.197Z,101081.72
2022-10-12T15:53:20.611Z,101080.91
2022-10-12T15:55:47.436Z,101076.88
2022-10-12T15:58:14.186Z,101072.28
2022-10-12T16:00:40.926Z,101079.91
2022-10-12T16:03:07.681Z,101074.59
2022-10-12T16:05:35.822Z,101080.38
2022-10-12T16:08:04.226Z,101074.28
2022-10-12T16:10:32.941Z,101084.59
2022-10-12T16:12:59.816Z,101073.91
2022-10-12T16:15:29.652Z,101077.66
2022-10-12T16:17:56.533Z,101073.41
2022-10-12T16:20:23.306Z,101075.91
2022-10-12T16:22:50.479Z,101073.78
2022-10-12T16:25:18.378Z,101074.69
2022-10-12T16:27:45.907Z,101073.72
2022-10-12T16:30:13.189Z,101080.75
2022-10-12T16:32:39.901Z,101079.75
2022-10-12T16:35:07.367Z,101085.97
2022-10-12T16:37:34.514Z,101077.19
2022-10-12T16:40:01.566Z,101078.06
2022-10-12T16:42:28.304Z,101081.28
2022-10-12T16:44:54.968Z,101081.69
2022-10-12T16:47:22.192Z,101082.59
2022-10-12T16:49:49.248Z,101082.94
2022-10-12T16:52:16.461Z,101089.31
2022-10-12T16:54:43.496Z,101090.31
2022-10-12T16:57:10.182Z,101089.44
2022-10-12T16:59:36.796Z,101093.19
2022-10-12T17:02:03.563Z,101090.94
2022-10-12T17:04:30.256Z,101092.13
2022-10-12T17:06:56.807Z,101099.50
2022-10-12T17:09:23.540Z,101101.06
2022-10-12T17:11:50.233Z,101103.91
2022-10-12T17:14:17.239Z,101108.19
2022-10-12T17:16:50.156Z,101105.88
2022-10-12T17:19:21.356Z,101111.53
2022-10-12T17:21:48.402Z,101106.69
2022-10-12T17:24:18.122Z,101107.44
2022-10-12T17:26:45.433Z,101109.66
2022-10-12T17:29:14.414Z,101115.09
2022-10-12T17:31:41.695Z,101111.59
2022-10-12T17:34:08.802Z,101110.09
2022-10-12T17:36:35.929Z,101111.13
2022-10-12T17:39:02.723Z,101108.31
2022-10-12T17:41:29.549Z,101105.66
2022-10-12T17:43:56.559Z,101109.13
2022-10-12T17:46:23.395Z,101112.09
2022-10-12T17:48:50.078Z,101111.84
2022-10-12T17:51:16.787Z,101117.16
2022-10-12T17:53:44.727Z,101112.25
2022-10-12T17:56:12.743Z,101107.16
2022-10-12T17:58:39.460Z,101104.87
2022-10-12T18:01:08.045Z,101113.47
2022-10-12T18:03:34.981Z,101105.28
2022-10-12T18:06:12.030Z,101112.81
2022-10-12T18:08:39.106Z,101117.34
2022-10-12T18:11:06.522Z,101120.41
2022-10-12T18:13:34.005Z,101113.34
2022-10-12T18:16:01.150Z,101109.50
2022-10-12T18:18:28.161Z,101111.84
2022-10-12T18:20:54.956Z,101122.59
2022-10-12T18:23:21.765Z,101119.28
2022-10-12T18:25:48.834Z,101116.50
2022-10-12T18:28:15.746Z,101124.87
2022-10-12T18:30:49.733Z,101126.31
2022-10-12T18:33:17.164Z,101122.63
2022-10-12T18:35:43.876Z,101127.22
2022-10-12T18:38:10.660Z,101129.59
2022-10-12T18:40:41.983Z,101124.56
2022-10-12T18:43:09.516Z,101134.47
2022-10-12T18:45:41.978Z,101130.88
2022-10-12T18:48:08.612Z,101128.87
2022-10-12T18:50:35.910Z,101140.62
2022-10-12T18:53:02.673Z,101139.88
2022-10-12T18:55:29.363Z,101136.59
2022-10-12T18:57:56.145Z,101146.44
2022-10-12T19:00:22.817Z,101146.56
2022-10-12T19:02:49.411Z,101131.59
2022-10-12T19:05:16.252Z,101148.38
2022-10-12T19:07:42.914Z,101155.56
2022-10-12T19:10:09.686Z,101151.13
2022-10-12T19:12:36.281Z,101152.91
2022-10-12T19:15:03.282Z,101158.75
2022-10-12T19:17:31.278Z,101156.56
2022-10-12T19:19:59.628Z,101156.72
2022-10-12T19:22:26.589Z,101156.75
2022-10-12T19:24:53.756Z,101148.03
2022-10-12T19:27:20.772Z,101153.53
2022-10-12T19:29:47.742Z,101150.28
2022-10-12T19:32:14.396Z,101156.97
2022-10-12T19:34:41.068Z,101151.16
2022-10-12T19:37:07.744Z,101153.81
2022-10-12T19:39:34.940Z,101153.06
2022-10-12T19:42:01.542Z,101161.16
2022-10-12T19:44:28.322Z,101152.97
2022-10-12T19:46:54.960Z,101158.25
2022-10-12T19:49:21.774Z,101159.91
2022-10-12T19:51:48.793Z,101159.13
2022-10-12T19:54:15.564Z,101157.19
2022-10-12T19:56:42.283Z,101156.34
2022-10-12T19:59:08.903Z,101156.34
2022-10-12T20:01:37.503Z,101151.97
2022-10-12T20:04:07.278Z,101147.44
2022-10-12T20:06:34.246Z,101148.25
2022-10-12T20:09:02.471Z,101148.16
2022-10-12T20:11:29.623Z,101148.34
2022-10-12T20:13:56.621Z,101152.69
2022-10-12T20:16:23.202Z,101142.25
2022-10-12T20:18:50.517Z,101154.75
2022-10-12T20:21:19.320Z,101152.06
2022-10-12T20:23:46.228Z,101150.75
2022-10-12T20:26:14.306Z,101152.59
2022-10-12T20:28:40.981Z,101153.91
2022-10-12T20:31:07.686Z,101162.56
2022-10-12T20:33:34.745Z,101169.19
2022-10-12T20:36:01.468Z,101168.06
2022-10-12T20:38:28.105Z,101168.16
2022-10-12T20:41:03.686Z,101168.97
2022-10-12T20:43:30.266Z,101163.84
2022-10-12T20:45:57.058Z,101162.59
2022-10-12T20:48:23.783Z,101164.16
2022-10-12T20:50:50.404Z,101167.62
2022-10-12T20:53:17.074Z,101166.69
2022-10-12T20:55:43.793Z,101172.19
2022-10-12T20:58:10.835Z,101172.34
2022-10-12T21:00:37.468Z,101178.41
2022-10-12T21:03:04.171Z,101176.81
2022-10-12T21:05:31.067Z,101179.63
2022-10-12T21:07:57.756Z,101176.13
2022-10-12T21:10:24.476Z,101182.56
2022-10-12T21:12:51.030Z,101177.94
2022-10-12T21:15:17.697Z,101176.94
2022-10-12T21:17:44.416Z,101177.16
2022-10-12T21:20:11.156Z,101169.13
2022-10-12T21:22:37.715Z,101170.06
2022-10-12T21:25:04.544Z,101181.66
2022-10-12T21:27:31.152Z,101171.91
2022-10-12T21:29:57.914Z,101172.19
2022-10-12T21:32:24.582Z,101179.22
2022-10-12T21:34:51.254Z,101176.47
2022-10-12T21:37:17.892Z,101171.94
2022-10-12T21:39:44.555Z,101170.34
2022-10-12T21:42:11.144Z,101170.44
2022-10-12T21:44:37.921Z,101170.47
2022-10-12T21:47:04.662Z,101176.25
2022-10-12T21:49:31.301Z,101178.69
2022-10-12T21:51:57.863Z,101169.66
2022-10-12T21:54:24.428Z,101179.25
2022-10-12T21:56:51.053Z,101173.13
2022-10-12T21:59:17.685Z,101168.69
2022-10-12T22:01:44.377Z,101169.78
2022-10-12T22:04:13.548Z,101161.06
2022-10-12T22:06:40.705Z,101170.03
2022-10-12T22:09:08.757Z,101165.53
2022-10-12T22:11:36.325Z,101166.47
2022-10-12T22:14:08.516Z,101168.25
2022-10-12T22:16:36.895Z,101170.09
2022-10-12T22:19:05.051Z,101167.47
2022-10-12T22:21:32.004Z,101175.66
2022-10-12T22:24:00.630Z,101176.56
2022-10-12T22:26:27.335Z,101179.94
2022-10-12T22:28:54.219Z,101180.06
2022-10-12T22:31:21.601Z,101180.78
2022-10-12T22:33:48.612Z,101178.94
2022-10-12T22:36:15.554Z,101171.25
2022-10-12T22:38:42.827Z,101175.69
2022-10-12T22:41:13.697Z,101166.81
2022-10-12T22:43:40.722Z,101165.91
2022-10-12T22:46:07.467Z,101169.66
2022-10-12T22:48:34.644Z,101167.94
2022-10-12T22:51:01.297Z,101171.44
2022-10-12T22:53:28.442Z,101169.63
2022-10-12T22:56:05.295Z,101162.59
2022-10-12T22:58:32.184Z,101166.22
2022-10-12T23:01:06.737Z,101167.34
2022-10-12T23:03:34.128Z,101170.13
2022-10-12T23:06:00.758Z,101166.44
2022-10-12T23:08:29.957Z,101166.41
2022-10-12T23:11:01.936Z,101165.53
2022-10-12T23:13:28.495Z,101167.25
2022-10-12T23:15:55.112Z,101169.09
2022-10-12T23:18:21.729Z,101174.41
2022-10-12T23:20:48.294Z,101174.47
2022-10-12T23:23:14.902Z,101161.19
2022-10-12T23:25:41.518Z,101160.38
2022-10-12T23:28:08.093Z,101159.50
2022-10-12T23:30:34.656Z,101163.09
2022-10-12T23:33:01.296Z,101160.56
2022-10-12T23:35:27.860Z,101157.88
2022-10-12T23:37:54.495Z,101162.47
2022-10-12T23:40:21.090Z,101166.03
2022-10-12T23:42:47.703Z,101161.03
2022-10-12T23:45:14.278Z,101172.47
2022-10-12T23:47:40.876Z,101171.63
2022-10-12T23:50:07.690Z,101176.69
2022-10-12T23:52:34.250Z,101167.00
2022-10-12T23:55:00.859Z,101161.72
2022-10-12T23:57:46.084Z,101170.50
